sensor_id;sensor_type;location;lat;lon;timestamp;pressure;altitude;pressure_sealevel;temperature;humidity
29839;BME280;18669;53.356;-1.464;2023-02-20T00:00:23;101102.38;;;10.57;100.00
29839;BME280;18669;53.356;-1.464;2023-02-20T00:02:49;101093.84;;;10.39;100.00
29839;BME280;18669;53.356;-1.464;2023-02-20T00:05:15;101095.22;;;10.67;100.00
29839;BME280;18669;53.356;-1.464;2023-02-20T00:07:41;101083.16;;;10.52;100.00
29839;BME280;18669;53.356;-1.464;2023-02-20T00:10:07;101087.25;;;10.73;100.00
29839;BME280;18669;53.356;-1.464;2023-02-20T00:12:33;101084.91;;;10.54;100.00
29839;BME280;18669;53.356;-1.464;2023-02-20T00:14:59;101070.03;;;10.49;100.00
29839;BME280;18669;53.356;-1.464;2023-02-20T00:17:25;101077.59;;;10.77;100.00
29839;BME280;18669;53.356;-1.464;2023-02-20T00:19:53;101082.13;;;10.65;100.00
29839;BME280;18669;53.356;-1.464;2023-02-20T00:22:24;101079.25;;;10.81;100.00
29839;BME280;18669;53.356;-1.464;2023-02-20T00:24:51;101075.03;;;10.69;100.00
29839;BME280;18669;53.356;-1.464;2023-02-20T00:27:17;101089.88;;;10.73;100.00
29839;BME280;18669;53.356;-1.464;2023-02-20T00:29:44;101086.38;;;10.76;100.00
29839;BME280;18669;53.356;-1.464;2023-02-20T00:32:11;101076.84;;;10.65;100.00
29839;BME280;18669;53.356;-1.464;2023-02-20T00:34:38;101076.78;;;10.70;100.00
29839;BME280;18669;53.356;-1.464;2023-02-20T00:37:04;101082.00;;;10.74;100.00
29839;BME280;18669;53.356;-1.464;2023-02-20T00:39:31;101077.47;;;10.84;100.00
29839;BME280;18669;53.356;-1.464;2023-02-20T00:41:57;101073.22;;;10.74;100.00
29839;BME280;18669;53.356;-1.464;2023-02-20T00:44:24;101081.09;;;10.74;100.00
29839;BME280;18669;53.356;-1.464;2023-02-20T00:46:50;101075.00;;;10.73;100.00
29839;BME280;18669;53.356;-1.464;2023-02-20T00:49:16;101075.00;;;10.72;100.00
29839;BME280;18669;53.356;-1.464;2023-02-20T00:51:42;101085.47;;;10.77;100.00
29839;BME280;18669;53.356;-1.464;2023-02-20T00:54:08;101077.59;;;10.75;100.00
29839;BME280;18669;53.356;-1.464;2023-02-20T00:56:34;101081.88;;;10.82;100.00
29839;BME280;18669;53.356;-1.464;2023-02-20T00:59:00;101070.44;;;10.83;100.00
29839;BME280;18669;53.356;-1.464;2023-02-20T01:01:26;101082.31;;;11.12;100.00
29839;BME280;18669;53.356;-1.464;2023-02-20T01:03:52;101075.59;;;10.93;100.00
29839;BME280;18669;53.356;-1.464;2023-02-20T01:06:18;101068.56;;;10.93;100.00
29839;BME280;18669;53.356;-1.464;2023-02-20T01:08:44;101071.81;;;11.09;100.00
29839;BME280;18669;53.356;-1.464;2023-02-20T01:11:10;101054.63;;;10.86;100.00
29839;BME280;18669;53.356;-1.464;2023-02-20T01:13:36;101065.09;;;10.89;100.00
29839;BME280;18669;53.356;-1.464;2023-02-20T01:16:03;101065.59;;;11.13;100.00
29839;BME280;18669;53.356;-1.464;2023-02-20T01:18:29;101057.16;;;10.91;100.00
29839;BME280;18669;53.356;-1.464;2023-02-20T01:20:55;101071.09;;;10.99;100.00
29839;BME280;18669;53.356;-1.464;2023-02-20T01:23:21;101053.53;;;11.00;100.00
29839;BME280;18669;53.356;-1.464;2023-02-20T01:25:47;101054.41;;;10.99;100.00
29839;BME280;18669;53.356;-1.464;2023-02-20T01:28:12;101054.94;;;11.23;100.00
29839;BME280;18669;53.356;-1.464;2023-02-20T01:30:38;101043.81;;;11.03;100.00
29839;BME280;18669;53.356;-1.464;2023-02-20T01:33:04;101038.19;;;11.27;100.00
29839;BME280;18669;53.356;-1.464;2023-02-20T01:35:31;101044.63;;;11.09;100.00
29839;BME280;18669;53.356;-1.464;2023-02-20T01:37:58;101040.25;;;11.06;100.00
29839;BME280;18669;53.356;-1.464;2023-02-20T01:40:25;101028.78;;;11.12;100.00
29839;BME280;18669;53.356;-1.464;2023-02-20T01:42:52;101031.41;;;11.12;100.00
29839;BME280;18669;53.356;-1.464;2023-02-20T01:47:53;101018.88;;;11.26;100.00
29839;BME280;18669;53.356;-1.464;2023-02-20T01:50:24;101024.19;;;11.25;100.00
29839;BME280;18669;53.356;-1.464;2023-02-20T01:52:53;101017.22;;;11.21;100.00
29839;BME280;18669;53.356;-1.464;2023-02-20T01:58:24;101015.28;;;11.30;100.00
29839;BME280;18669;53.356;-1.464;2023-02-20T02:00:53;101010.13;;;11.26;100.00
29839;BME280;18669;53.356;-1.464;2023-02-20T02:03:23;101019.72;;;11.28;100.00
29839;BME280;18669;53.356;-1.464;2023-02-20T02:05:53;101018.84;;;11.28;100.00
29839;BME280;18669;53.356;-1.464;2023-02-20T02:08:23;101009.41;;;11.13;100.00
29839;BME280;18669;53.356;-1.464;2023-02-20T02:10:59;101016.06;;;11.36;100.00
29839;BME280;18669;53.356;-1.464;2023-02-20T02:13:30;101004.84;;;11.24;100.00
29839;BME280;18669;53.356;-1.464;2023-02-20T02:16:10;100998.47;;;11.38;100.00
29839;BME280;18669;53.356;-1.464;2023-02-20T02:21:49;100986.25;;;11.33;100.00
29839;BME280;18669;53.356;-1.464;2023-02-20T02:24:38;100970.41;;;11.37;100.00
29839;BME280;18669;53.356;-1.464;2023-02-20T02:48:51;100942.47;;;11.28;100.00
29839;BME280;18669;53.356;-1.464;2023-02-20T02:51:26;100953.81;;;11.31;100.00
29839;BME280;18669;53.356;-1.464;2023-02-20T02:54:19;100946.75;;;11.33;100.00
29839;BME280;18669;53.356;-1.464;2023-02-20T02:56:47;100957.44;;;11.24;100.00
29839;BME280;18669;53.356;-1.464;2023-02-20T02:59:20;100948.44;;;11.36;100.00
29839;BME280;18669;53.356;-1.464;2023-02-20T03:01:55;100957.28;;;11.32;100.00
29839;BME280;18669;53.356;-1.464;2023-02-20T03:04:24;100950.38;;;11.28;100.00
29839;BME280;18669;53.356;-1.464;2023-02-20T03:07:02;100942.53;;;11.25;100.00
29839;BME280;18669;53.356;-1.464;2023-02-20T03:09:56;100940.59;;;11.33;100.00
29839;BME280;18669;53.356;-1.464;2023-02-20T03:12:25;100936.38;;;11.26;100.00
29839;BME280;18669;53.356;-1.464;2023-02-20T03:14:56;100933.91;;;11.15;100.00
29839;BME280;18669;53.356;-1.464;2023-02-20T03:17:52;100936.31;;;11.27;100.00
29839;BME280;18669;53.356;-1.464;2023-02-20T03:20:25;100924.09;;;11.23;100.00
29839;BME280;18669;53.356;-1.464;2023-02-20T03:22:59;100930.00;;;11.36;100.00
29839;BME280;18669;53.356;-1.464;2023-02-20T03:25:32;100931.03;;;11.29;100.00
29839;BME280;18669;53.356;-1.464;2023-02-20T03:30:45;100932.69;;;11.34;100.00
29839;BME280;18669;53.356;-1.464;2023-02-20T03:33:23;100913.56;;;11.25;100.00
29839;BME280;18669;53.356;-1.464;2023-02-20T03:36:11;100922.53;;;11.13;100.00
29839;BME280;18669;53.356;-1.464;2023-02-20T03:39:00;100913.66;;;11.18;100.00
29839;BME280;18669;53.356;-1.464;2023-02-20T03:41:47;100922.47;;;11.16;100.00
29839;BME280;18669;53.356;-1.464;2023-02-20T03:44:32;100907.66;;;11.10;100.00
29839;BME280;18669;53.356;-1.464;2023-02-20T03:47:00;100914.44;;;11.24;100.00
29839;BME280;18669;53.356;-1.464;2023-02-20T03:49:34;100913.63;;;11.20;100.00
29839;BME280;18669;53.356;-1.464;2023-02-20T03:52:02;100894.59;;;11.06;100.00
29839;BME280;18669;53.356;-1.464;2023-02-20T03:54:29;100890.06;;;11.12;100.00
29839;BME280;18669;53.356;-1.464;2023-02-20T03:57:04;100886.28;;;11.27;100.00
29839;BME280;18669;53.356;-1.464;2023-02-20T03:59:35;100886.50;;;11.16;100.00
29839;BME280;18669;53.356;-1.464;2023-02-20T04:02:06;100891.66;;;11.21;100.00
29839;BME280;18669;53.356;-1.464;2023-02-20T04:04:41;100888.00;;;11.28;100.00
29839;BME280;18669;53.356;-1.464;2023-02-20T04:07:15;100887.41;;;11.14;100.00
29839;BME280;18669;53.356;-1.464;2023-02-20T04:09:45;100870.81;;;11.10;100.00
29839;BME280;18669;53.356;-1.464;2023-02-20T04:12:26;100879.22;;;11.29;100.00
29839;BME280;18669;53.356;-1.464;2023-02-20T04:14:55;100874.94;;;11.24;100.00
29839;BME280;18669;53.356;-1.464;2023-02-20T04:17:31;100872.94;;;11.35;100.00
29839;BME280;18669;53.356;-1.464;2023-02-20T04:20:00;100865.31;;;11.21;100.00
29839;BME280;18669;53.356;-1.464;2023-02-20T04:22:28;100863.41;;;11.29;100.00
29839;BME280;18669;53.356;-1.464;2023-02-20T04:25:00;100864.28;;;11.30;100.00
29839;BME280;18669;53.356;-1.464;2023-02-20T04:27:27;100873.22;;;11.23;100.00
29839;BME280;18669;53.356;-1.464;2023-02-20T04:29:53;100866.66;;;11.42;100.00
29839;BME280;18669;53.356;-1.464;2023-02-20T04:32:19;100861.84;;;11.21;100.00
29839;BME280;18669;53.356;-1.464;2023-02-20T04:34:45;100857.81;;;11.46;100.00
29839;BME280;18669;53.356;-1.464;2023-02-20T04:37:14;100855.28;;;11.40;100.00
29839;BME280;18669;53.356;-1.464;2023-02-20T04:39:41;100870.53;;;11.24;100.00
29839;BME280;18669;53.356;-1.464;2023-02-20T04:42:07;100866.16;;;11.25;100.00
29839;BME280;18669;53.356;-1.464;2023-02-20T04:44:33;100866.59;;;11.47;100.00
29839;BME280;18669;53.356;-1.464;2023-02-20T04:47:05;100863.38;;;11.31;100.00
29839;BME280;18669;53.356;-1.464;2023-02-20T04:49:32;100885.44;;;11.25;100.00
29839;BME280;18669;53.356;-1.464;2023-02-20T04:51:59;100882.91;;;11.21;100.00
29839;BME280;18669;53.356;-1.464;2023-02-20T04:54:25;100873.22;;;11.23;100.00
29839;BME280;18669;53.356;-1.464;2023-02-20T04:56:51;100888.84;;;11.30;100.00
29839;BME280;18669;53.356;-1.464;2023-02-20T04:59:18;100878.38;;;11.29;100.00
29839;BME280;18669;53.356;-1.464;2023-02-20T05:01:44;100881.00;;;11.27;100.00
29839;BME280;18669;53.356;-1.464;2023-02-20T05:04:15;100881.69;;;11.39;100.00
29839;BME280;18669;53.356;-1.464;2023-02-20T05:06:47;100894.75;;;11.43;100.00
29839;BME280;18669;53.356;-1.464;2023-02-20T05:09:14;100899.28;;;11.35;100.00
29839;BME280;18669;53.356;-1.464;2023-02-20T05:11:40;100894.97;;;11.32;100.00
29839;BME280;18669;53.356;-1.464;2023-02-20T05:14:06;100892.78;;;11.53;100.00
29839;BME280;18669;53.356;-1.464;2023-02-20T05:16:32;100890.47;;;11.38;100.00
29839;BME280;18669;53.356;-1.464;2023-02-20T05:18:58;100889.66;;;11.34;100.00
29839;BME280;18669;53.356;-1.464;2023-02-20T05:21:28;100899.91;;;11.49;100.00
29839;BME280;18669;53.356;-1.464;2023-02-20T05:24:13;100887.84;;;11.38;100.00
29839;BME280;18669;53.356;-1.464;2023-02-20T05:26:39;100884.44;;;11.32;100.00
29839;BME280;18669;53.356;-1.464;2023-02-20T05:29:06;100889.53;;;11.40;100.00
29839;BME280;18669;53.356;-1.464;2023-02-20T05:31:38;100900.13;;;11.37;100.00
29839;BME280;18669;53.356;-1.464;2023-02-20T05:34:04;100906.34;;;11.33;100.00
29839;BME280;18669;53.356;-1.464;2023-02-20T05:36:31;100911.63;;;11.33;100.00
29839;BME280;18669;53.356;-1.464;2023-02-20T05:38:57;100906.44;;;11.30;100.00
29839;BME280;18669;53.356;-1.464;2023-02-20T05:41:23;100904.72;;;11.27;100.00
29839;BME280;18669;53.356;-1.464;2023-02-20T05:43:49;100906.91;;;11.51;100.00
29839;BME280;18669;53.356;-1.464;2023-02-20T05:46:15;100907.19;;;11.35;100.00
29839;BME280;18669;53.356;-1.464;2023-02-20T05:48:42;100907.19;;;11.35;100.00
29839;BME280;18669;53.356;-1.464;2023-02-20T05:51:08;100905.44;;;11.34;100.00
29839;BME280;18669;53.356;-1.464;2023-02-20T05:53:33;100904.88;;;11.63;100.00
29839;BME280;18669;53.356;-1.464;2023-02-20T05:55:59;100894.78;;;11.42;100.00
29839;BME280;18669;53.356;-1.464;2023-02-20T05:58:25;100900.50;;;11.62;100.00
29839;BME280;18669;53.356;-1.464;2023-02-20T06:00:51;100888.56;;;11.46;100.00
29839;BME280;18669;53.356;-1.464;2023-02-20T06:03:17;100883.63;;;11.73;100.00
29839;BME280;18669;53.356;-1.464;2023-02-20T06:05:43;100897.22;;;11.51;100.00
29839;BME280;18669;53.356;-1.464;2023-02-20T06:08:09;100896.72;;;11.76;100.00
29839;BME280;18669;53.356;-1.464;2023-02-20T06:10:35;100901.56;;;11.54;100.00
29839;BME280;18669;53.356;-1.464;2023-02-20T06:13:01;100915.19;;;11.76;100.00
29839;BME280;18669;53.356;-1.464;2023-02-20T06:15:27;100912.13;;;11.54;100.00
29839;BME280;18669;53.356;-1.464;2023-02-20T06:17:53;100911.66;;;11.75;100.00
29839;BME280;18669;53.356;-1.464;2023-02-20T06:20:19;100913.81;;;11.56;100.00
29839;BME280;18669;53.356;-1.464;2023-02-20T06:22:48;100904.75;;;11.70;100.00
29839;BME280;18669;53.356;-1.464;2023-02-20T06:25:15;100905.78;;;11.62;100.00
29839;BME280;18669;53.356;-1.464;2023-02-20T06:27:41;100918.00;;;11.67;100.00
29839;BME280;18669;53.356;-1.464;2023-02-20T06:30:08;100918.91;;;11.66;100.00
29839;BME280;18669;53.356;-1.464;2023-02-20T06:32:34;100911.94;;;11.63;100.00
29839;BME280;18669;53.356;-1.464;2023-02-20T06:35:00;100905.31;;;11.86;100.00
29839;BME280;18669;53.356;-1.464;2023-02-20T06:37:25;100911.91;;;11.64;100.00
29839;BME280;18669;53.356;-1.464;2023-02-20T06:39:51;100917.59;;;11.85;100.00
29839;BME280;18669;53.356;-1.464;2023-02-20T06:42:18;100909.31;;;11.63;100.00
29839;BME280;18669;53.356;-1.464;2023-02-20T06:44:43;100906.22;;;11.83;100.00
29839;BME280;18669;53.356;-1.464;2023-02-20T06:47:10;100905.63;;;11.70;100.00
29839;BME280;18669;53.356;-1.464;2023-02-20T06:49:37;100915.44;;;11.63;100.00
29839;BME280;18669;53.356;-1.464;2023-02-20T06:52:06;100920.47;;;11.76;100.00
29839;BME280;18669;53.356;-1.464;2023-02-20T06:54:33;100926.03;;;11.60;100.00
29839;BME280;18669;53.356;-1.464;2023-02-20T06:56:59;100926.75;;;11.69;100.00
29839;BME280;18669;53.356;-1.464;2023-02-20T06:59:26;100924.13;;;11.67;100.00
29839;BME280;18669;53.356;-1.464;2023-02-20T07:01:52;100933.72;;;11.71;100.00
29839;BME280;18669;53.356;-1.464;2023-02-20T07:04:20;100925.44;;;11.90;100.00
29839;BME280;18669;53.356;-1.464;2023-02-20T07:06:46;100924.06;;;11.70;100.00
29839;BME280;18669;53.356;-1.464;2023-02-20T07:09:13;100927.75;;;11.63;100.00
29839;BME280;18669;53.356;-1.464;2023-02-20T07:11:40;100934.81;;;11.61;100.00
29839;BME280;18669;53.356;-1.464;2023-02-20T07:14:06;100934.75;;;11.64;100.00
29839;BME280;18669;53.356;-1.464;2023-02-20T07:16:32;100926.34;;;11.89;100.00
29839;BME280;18669;53.356;-1.464;2023-02-20T07:18:58;100924.22;;;11.62;100.00
29839;BME280;18669;53.356;-1.464;2023-02-20T07:21:24;100924.75;;;11.80;100.00
29839;BME280;18669;53.356;-1.464;2023-02-20T07:23:50;100920.75;;;11.60;100.00
29839;BME280;18669;53.356;-1.464;2023-02-20T07:26:20;100922.09;;;11.82;100.00
29839;BME280;18669;53.356;-1.464;2023-02-20T07:28:46;100913.69;;;11.62;100.00
29839;BME280;18669;53.356;-1.464;2023-02-20T07:31:13;100914.47;;;11.66;100.00
29839;BME280;18669;53.356;-1.464;2023-02-20T07:33:38;100914.97;;;11.85;100.00
29839;BME280;18669;53.356;-1.464;2023-02-20T07:36:05;100914.63;;;11.60;100.00
29839;BME280;18669;53.356;-1.464;2023-02-20T07:38:31;100918.16;;;11.59;100.00
29839;BME280;18669;53.356;-1.464;2023-02-20T07:40:57;100908.06;;;11.79;100.00
29839;BME280;18669;53.356;-1.464;2023-02-20T07:43:23;100911.28;;;11.52;100.00
29839;BME280;18669;53.356;-1.464;2023-02-20T07:45:48;100921.31;;;11.76;100.00
29839;BME280;18669;53.356;-1.464;2023-02-20T07:48:14;100908.41;;;11.62;100.00
29839;BME280;18669;53.356;-1.464;2023-02-20T07:50:40;100929.03;;;11.86;100.00
29839;BME280;18669;53.356;-1.464;2023-02-20T07:53:06;100929.31;;;11.72;100.00
29839;BME280;18669;53.356;-1.464;2023-02-20T07:55:32;100926.69;;;11.72;100.00
29839;BME280;18669;53.356;-1.464;2023-02-20T07:57:58;100930.72;;;11.88;100.00
29839;BME280;18669;53.356;-1.464;2023-02-20T08:00:25;100946.75;;;11.77;100.00
29839;BME280;18669;53.356;-1.464;2023-02-20T08:02:51;100939.97;;;11.66;100.00
29839;BME280;18669;53.356;-1.464;2023-02-20T08:05:18;100946.88;;;11.73;100.00
29839;BME280;18669;53.356;-1.464;2023-02-20T08:07:44;100942.03;;;11.95;100.00
29839;BME280;18669;53.356;-1.464;2023-02-20T08:10:11;100941.44;;;11.81;100.00
29839;BME280;18669;53.356;-1.464;2023-02-20T08:12:38;100928.25;;;11.81;100.00
29839;BME280;18669;53.356;-1.464;2023-02-20T08:15:04;100939.75;;;11.78;100.00
29839;BME280;18669;53.356;-1.464;2023-02-20T08:17:30;100933.69;;;11.73;100.00
29839;BME280;18669;53.356;-1.464;2023-02-20T08:19:56;100932.53;;;11.86;100.00
29839;BME280;18669;53.356;-1.464;2023-02-20T08:22:22;100937.16;;;11.75;100.00
29839;BME280;18669;53.356;-1.464;2023-02-20T08:24:47;100932.38;;;11.94;100.00
29839;BME280;18669;53.356;-1.464;2023-02-20T08:27:13;100926.50;;;11.81;100.00
29839;BME280;18669;53.356;-1.464;2023-02-20T08:29:39;100933.22;;;11.96;100.00
29839;BME280;18669;53.356;-1.464;2023-02-20T08:32:05;100947.59;;;11.79;100.00
29839;BME280;18669;53.356;-1.464;2023-02-20T08:34:31;100949.06;;;11.94;100.00
29839;BME280;18669;53.356;-1.464;2023-02-20T08:36:57;100945.09;;;11.73;100.00
29839;BME280;18669;53.356;-1.464;2023-02-20T08:39:23;100960.47;;;11.95;100.00
29839;BME280;18669;53.356;-1.464;2023-02-20T08:41:49;100956.47;;;11.75;100.00
29839;BME280;18669;53.356;-1.464;2023-02-20T08:44:15;100946.75;;;11.79;100.00
29839;BME280;18669;53.356;-1.464;2023-02-20T08:46:44;100950.84;;;11.94;100.00
29839;BME280;18669;53.356;-1.464;2023-02-20T08:49:10;100950.19;;;11.83;100.00
29839;BME280;18669;53.356;-1.464;2023-02-20T08:51:36;100946.53;;;11.90;100.00
29839;BME280;18669;53.356;-1.464;2023-02-20T08:54:02;100947.53;;;11.83;100.00
29839;BME280;18669;53.356;-1.464;2023-02-20T08:56:29;100953.59;;;11.86;100.00
29839;BME280;18669;53.356;-1.464;2023-02-20T08:58:55;100953.72;;;11.82;100.00
29839;BME280;18669;53.356;-1.464;2023-02-20T09:01:22;100964.19;;;11.85;100.00
29839;BME280;18669;53.356;-1.464;2023-02-20T09:03:49;100955.41;;;11.84;100.00
29839;BME280;18669;53.356;-1.464;2023-02-20T09:06:16;100963.25;;;11.87;100.00
29839;BME280;18669;53.356;-1.464;2023-02-20T09:08:42;100958.47;;;12.08;100.00
29839;BME280;18669;53.356;-1.464;2023-02-20T09:11:08;100972.81;;;11.93;100.00
29839;BME280;18669;53.356;-1.464;2023-02-20T09:13:43;100949.72;;;12.06;100.00
29839;BME280;18669;53.356;-1.464;2023-02-20T09:16:13;100976.09;;;12.06;100.00
29839;BME280;18669;53.356;-1.464;2023-02-20T09:18:39;100975.47;;;11.91;100.00
29839;BME280;18669;53.356;-1.464;2023-02-20T09:21:09;100981.22;;;12.14;100.00
29839;BME280;18669;53.356;-1.464;2023-02-20T09:23:36;100977.84;;;12.05;100.00
29839;BME280;18669;53.356;-1.464;2023-02-20T09:26:03;100983.06;;;12.08;100.00
29839;BME280;18669;53.356;-1.464;2023-02-20T09:28:29;100970.72;;;12.11;100.00
29839;BME280;18669;53.356;-1.464;2023-02-20T09:30:55;100980.31;;;12.15;100.00
29839;BME280;18669;53.356;-1.464;2023-02-20T09:33:22;100980.44;;;12.08;100.00
29839;BME280;18669;53.356;-1.464;2023-02-20T09:35:49;100980.44;;;12.08;100.00
29839;BME280;18669;53.356;-1.464;2023-02-20T09:38:17;100975.13;;;12.10;100.00
29839;BME280;18669;53.356;-1.464;2023-02-20T09:40:45;100985.47;;;12.19;100.00
29839;BME280;18669;53.356;-1.464;2023-02-20T09:43:26;100974.84;;;12.22;100.00
29839;BME280;18669;53.356;-1.464;2023-02-20T09:51:17;100994.06;;;12.29;100.00
29839;BME280;18669;53.356;-1.464;2023-02-20T09:54:02;100985.25;;;12.30;100.00
29839;BME280;18669;53.356;-1.464;2023-02-20T09:56:36;100982.47;;;12.36;100.00
29839;BME280;18669;53.356;-1.464;2023-02-20T09:59:09;100986.13;;;12.31;100.00
29839;BME280;18669;53.356;-1.464;2023-02-20T10:01:42;100971.94;;;12.35;100.00
29839;BME280;18669;53.356;-1.464;2023-02-20T10:04:17;100971.81;;;12.41;100.00
29839;BME280;18669;53.356;-1.464;2023-02-20T10:06:45;100986.03;;;12.35;100.00
29839;BME280;18669;53.356;-1.464;2023-02-20T10:09:13;100981.66;;;12.34;100.00
29839;BME280;18669;53.356;-1.464;2023-02-20T10:12:15;100980.72;;;12.37;100.00
29839;BME280;18669;53.356;-1.464;2023-02-20T10:15:09;100979.88;;;12.35;100.00
29839;BME280;18669;53.356;-1.464;2023-02-20T10:17:50;100986.94;;;12.34;100.00
29839;BME280;18669;53.356;-1.464;2023-02-20T10:20:53;100982.63;;;12.29;100.00
29839;BME280;18669;53.356;-1.464;2023-02-20T10:23:40;100992.13;;;12.37;100.00
29839;BME280;18669;53.356;-1.464;2023-02-20T10:26:13;100994.88;;;12.33;100.00
29839;BME280;18669;53.356;-1.464;2023-02-20T10:28:41;100989.19;;;12.11;100.00
29839;BME280;18669;53.356;-1.464;2023-02-20T10:31:17;100997.50;;;12.33;100.00
29839;BME280;18669;53.356;-1.464;2023-02-20T10:36:43;100992.34;;;12.27;100.00
29839;BME280;18669;53.356;-1.464;2023-02-20T10:39:16;100989.59;;;12.33;100.00
29839;BME280;18669;53.356;-1.464;2023-02-20T10:47:42;100986.63;;;12.48;100.00
29839;BME280;18669;53.356;-1.464;2023-02-20T10:53:00;100985.59;;;12.54;100.00
29839;BME280;18669;53.356;-1.464;2023-02-20T10:58:25;100981.22;;;12.53;100.00
29839;BME280;18669;53.356;-1.464;2023-02-20T11:00:55;100982.06;;;12.55;100.00
29839;BME280;18669;53.356;-1.464;2023-02-20T11:03:47;100978.72;;;12.47;100.00
29839;BME280;18669;53.356;-1.464;2023-02-20T11:06:16;100971.75;;;12.44;100.00
29839;BME280;18669;53.356;-1.464;2023-02-20T11:08:43;100980.53;;;12.45;100.00
29839;BME280;18669;53.356;-1.464;2023-02-20T11:13:57;100986.56;;;12.50;100.00
29839;BME280;18669;53.356;-1.464;2023-02-20T11:16:31;100989.91;;;12.57;100.00
29839;BME280;18669;53.356;-1.464;2023-02-20T11:19:05;100969.72;;;12.56;100.00
29839;BME280;18669;53.356;-1.464;2023-02-20T11:21:38;100968.81;;;12.57;100.00
29839;BME280;18669;53.356;-1.464;2023-02-20T11:26:49;100978.25;;;12.67;100.00
29839;BME280;18669;53.356;-1.464;2023-02-20T11:29:18;100963.44;;;12.61;100.00
29839;BME280;18669;53.356;-1.464;2023-02-20T11:31:45;100964.09;;;12.71;100.00
29839;BME280;18669;53.356;-1.464;2023-02-20T11:34:21;100973.31;;;12.89;100.00
29839;BME280;18669;53.356;-1.464;2023-02-20T11:36:53;100965.59;;;12.81;100.00
29839;BME280;18669;53.356;-1.464;2023-02-20T11:39:25;100966.91;;;13.00;100.00
29839;BME280;18669;53.356;-1.464;2023-02-20T11:44:31;100958.59;;;12.80;100.00
29839;BME280;18669;53.356;-1.464;2023-02-20T11:47:17;100959.75;;;13.05;100.00
29839;BME280;18669;53.356;-1.464;2023-02-20T11:49:44;100954.53;;;13.02;100.00
29839;BME280;18669;53.356;-1.464;2023-02-20T11:52:21;100953.66;;;13.01;100.00
29839;BME280;18669;53.356;-1.464;2023-02-20T11:55:09;100946.19;;;13.17;100.00
29839;BME280;18669;53.356;-1.464;2023-02-20T11:57:40;100944.31;;;13.22;100.00
29839;BME280;18669;53.356;-1.464;2023-02-20T12:00:17;100941.66;;;13.24;100.00
29839;BME280;18669;53.356;-1.464;2023-02-20T12:03:10;100949.66;;;13.21;100.00
29839;BME280;18669;53.356;-1.464;2023-02-20T12:05:45;100949.66;;;13.19;100.00
29839;BME280;18669;53.356;-1.464;2023-02-20T12:11:13;100935.69;;;13.16;100.00
29839;BME280;18669;53.356;-1.464;2023-02-20T12:13:45;100951.53;;;13.16;100.00
29839;BME280;18669;53.356;-1.464;2023-02-20T12:16:36;100936.38;;;13.22;100.00
29839;BME280;18669;53.356;-1.464;2023-02-20T12:19:16;100934.50;;;13.26;100.00
29839;BME280;18669;53.356;-1.464;2023-02-20T12:24:42;100930.03;;;13.30;100.00
29839;BME280;18669;53.356;-1.464;2023-02-20T12:27:32;100930.97;;;13.27;100.00
29839;BME280;18669;53.356;-1.464;2023-02-20T12:35:32;100922.84;;;13.35;100.00
29839;BME280;18669;53.356;-1.464;2023-02-20T12:38:12;100915.00;;;13.32;100.00
29839;BME280;18669;53.356;-1.464;2023-02-20T12:41:11;100911.53;;;13.30;100.00
29839;BME280;18669;53.356;-1.464;2023-02-20T12:49:15;100916.53;;;13.42;100.00
29839;BME280;18669;53.356;-1.464;2023-02-20T12:54:48;100913.41;;;13.59;100.00
29839;BME280;18669;53.356;-1.464;2023-02-20T12:57:31;100918.72;;;13.57;100.00
29839;BME280;18669;53.356;-1.464;2023-02-20T13:02:58;100923.09;;;13.58;100.00
29839;BME280;18669;53.356;-1.464;2023-02-20T13:05:26;100917.44;;;13.41;100.00
29839;BME280;18669;53.356;-1.464;2023-02-20T13:08:02;100908.28;;;13.53;100.00
29839;BME280;18669;53.356;-1.464;2023-02-20T13:10:34;100918.19;;;13.45;100.00
29839;BME280;18669;53.356;-1.464;2023-02-20T13:13:01;100917.44;;;13.41;100.00
29839;BME280;18669;53.356;-1.464;2023-02-20T13:21:09;100905.59;;;13.54;100.00
29839;BME280;18669;53.356;-1.464;2023-02-20T13:23:37;100909.38;;;13.46;100.00
29839;BME280;18669;53.356;-1.464;2023-02-20T13:26:43;100913.50;;;13.56;100.00
29839;BME280;18669;53.356;-1.464;2023-02-20T13:29:15;100911.78;;;13.53;100.00
29839;BME280;18669;53.356;-1.464;2023-02-20T13:31:50;100923.84;;;13.64;100.00
29839;BME280;18669;53.356;-1.464;2023-02-20T13:36:46;100912.47;;;13.60;100.00
29839;BME280;18669;53.356;-1.464;2023-02-20T13:39:29;100914.41;;;13.55;100.00
29839;BME280;18669;53.356;-1.464;2023-02-20T13:42:02;100909.19;;;13.52;100.00
29839;BME280;18669;53.356;-1.464;2023-02-20T13:52:42;100908.00;;;13.62;100.00
29839;BME280;18669;53.356;-1.464;2023-02-20T13:57:47;100908.88;;;13.63;100.00
29839;BME280;18669;53.356;-1.464;2023-02-20T14:00:18;100905.50;;;13.57;100.00
29839;BME280;18669;53.356;-1.464;2023-02-20T14:02:46;100910.84;;;13.56;100.00
29839;BME280;18669;53.356;-1.464;2023-02-20T14:05:17;100908.63;;;13.72;100.00
29839;BME280;18669;53.356;-1.464;2023-02-20T14:07:45;100903.84;;;13.53;100.00
29839;BME280;18669;53.356;-1.464;2023-02-20T14:12:43;100904.06;;;13.46;100.00
29839;BME280;18669;53.356;-1.464;2023-02-20T14:15:09;100919.06;;;13.45;100.00
29839;BME280;18669;53.356;-1.464;2023-02-20T14:17:35;100908.19;;;13.56;100.00
29839;BME280;18669;53.356;-1.464;2023-02-20T14:20:10;100905.00;;;13.43;100.00
29839;BME280;18669;53.356;-1.464;2023-02-20T14:22:40;100909.50;;;13.41;100.00
29839;BME280;18669;53.356;-1.464;2023-02-20T14:25:22;100908.28;;;13.53;100.00
29839;BME280;18669;53.356;-1.464;2023-02-20T14:27:48;100912.84;;;13.46;100.00
29839;BME280;18669;53.356;-1.464;2023-02-20T14:30:21;100904.75;;;13.52;100.00